Terminal Aerodrome Forecast
Issued by NWS

Home | Current Version | Previous Version | Text Only | Print | Product List | Glossary On
Versions: 1 2 3 4 5 6 7 8 9 10 11 12 13 14 15 16 17 18 19 20 21 22 23 24 25 26 27 28 29 30 31 32 33
000
FTUS45 KGJT 172009 AAA
TAFEGE
TAF AMD
KEGE 172009Z 1720/1818 25017G29KT P6SM -RA SCT040 OVC060
     FM172200 25025G40KT P6SM -RA SCT040 OVC060
     FM180100 27016G29KT 5SM -SN OVC030
     FM180400 27013G21KT P6SM VCSH SCT030 OVC045
     FM180600 27009KT P6SM SCT035 BKN070=

USA.gov is the U.S. government's official web portal to all federal, state and local government web resources and services.